sensor_id;sensor_type;location;lat;lon;timestamp;P1;durP1;ratioP1;P2;durP2;ratioP2
3637;SDS011;1835;50.068;8.154;2022-12-18T00:00:06;6.47;;;4.20;;
3637;SDS011;1835;50.068;8.154;2022-12-18T00:02:36;27.33;;;8.23;;
3637;SDS011;1835;50.068;8.154;2022-12-18T00:05:05;10.70;;;5.37;;
3637;SDS011;1835;50.068;8.154;2022-12-18T00:07:35;16.37;;;6.80;;
3637;SDS011;1835;50.068;8.154;2022-12-18T00:10:04;12.63;;;4.90;;
3637;SDS011;1835;50.068;8.154;2022-12-18T00:12:33;15.43;;;6.00;;
3637;SDS011;1835;50.068;8.154;2022-12-18T00:15:01;11.60;;;5.40;;
3637;SDS011;1835;50.068;8.154;2022-12-18T00:17:30;8.60;;;4.80;;
3637;SDS011;1835;50.068;8.154;2022-12-18T00:19:59;8.37;;;4.23;;
3637;SDS011;1835;50.068;8.154;2022-12-18T00:22:27;5.13;;;4.00;;
3637;SDS011;1835;50.068;8.154;2022-12-18T00:24:55;5.37;;;4.07;;
3637;SDS011;1835;50.068;8.154;2022-12-18T00:27:23;7.50;;;4.87;;
3637;SDS011;1835;50.068;8.154;2022-12-18T00:29:51;6.90;;;4.03;;
3637;SDS011;1835;50.068;8.154;2022-12-18T00:32:19;4.50;;;3.67;;
3637;SDS011;1835;50.068;8.154;2022-12-18T00:34:47;5.00;;;4.37;;
3637;SDS011;1835;50.068;8.154;2022-12-18T00:37:17;9.63;;;4.60;;
3637;SDS011;1835;50.068;8.154;2022-12-18T00:39:48;8.43;;;4.23;;
3637;SDS011;1835;50.068;8.154;2022-12-18T00:42:16;3.20;;;2.90;;
3637;SDS011;1835;50.068;8.154;2022-12-18T00:45:02;7.77;;;3.80;;
3637;SDS011;1835;50.068;8.154;2022-12-18T00:47:38;8.20;;;4.33;;
3637;SDS011;1835;50.068;8.154;2022-12-18T00:50:06;3.90;;;3.50;;
3637;SDS011;1835;50.068;8.154;2022-12-18T00:52:40;8.63;;;4.27;;
3637;SDS011;1835;50.068;8.154;2022-12-18T00:55:08;10.23;;;4.33;;
3637;SDS011;1835;50.068;8.154;2022-12-18T00:57:37;4.30;;;3.20;;
3637;SDS011;1835;50.068;8.154;2022-12-18T01:00:06;9.67;;;3.40;;
3637;SDS011;1835;50.068;8.154;2022-12-18T01:02:37;12.80;;;4.43;;
3637;SDS011;1835;50.068;8.154;2022-12-18T01:05:05;12.07;;;4.30;;
3637;SDS011;1835;50.068;8.154;2022-12-18T01:07:34;5.97;;;4.30;;
3637;SDS011;1835;50.068;8.154;2022-12-18T01:10:04;4.93;;;4.43;;
3637;SDS011;1835;50.068;8.154;2022-12-18T01:12:34;4.57;;;2.50;;
3637;SDS011;1835;50.068;8.154;2022-12-18T01:15:02;6.13;;;4.10;;
3637;SDS011;1835;50.068;8.154;2022-12-18T01:17:32;4.47;;;3.80;;
3637;SDS011;1835;50.068;8.154;2022-12-18T01:20:01;7.60;;;3.40;;
3637;SDS011;1835;50.068;8.154;2022-12-18T01:22:29;7.07;;;3.67;;
3637;SDS011;1835;50.068;8.154;2022-12-18T01:24:57;7.77;;;3.57;;
3637;SDS011;1835;50.068;8.154;2022-12-18T01:27:26;10.00;;;4.73;;
3637;SDS011;1835;50.068;8.154;2022-12-18T01:29:54;11.43;;;4.70;;
3637;SDS011;1835;50.068;8.154;2022-12-18T01:32:22;11.50;;;4.30;;
3637;SDS011;1835;50.068;8.154;2022-12-18T01:34:50;9.43;;;4.57;;
3637;SDS011;1835;50.068;8.154;2022-12-18T01:37:18;12.93;;;5.37;;
3637;SDS011;1835;50.068;8.154;2022-12-18T01:39:46;15.57;;;4.80;;
3637;SDS011;1835;50.068;8.154;2022-12-18T01:42:16;8.03;;;3.93;;
3637;SDS011;1835;50.068;8.154;2022-12-18T01:44:54;6.63;;;4.80;;
3637;SDS011;1835;50.068;8.154;2022-12-18T01:50:16;14.70;;;4.70;;
3637;SDS011;1835;50.068;8.154;2022-12-18T01:52:48;9.90;;;4.37;;
3637;SDS011;1835;50.068;8.154;2022-12-18T01:55:24;14.33;;;5.33;;
3637;SDS011;1835;50.068;8.154;2022-12-18T01:57:55;14.00;;;6.33;;
3637;SDS011;1835;50.068;8.154;2022-12-18T02:00:27;8.13;;;4.90;;
3637;SDS011;1835;50.068;8.154;2022-12-18T02:02:56;11.07;;;5.03;;
3637;SDS011;1835;50.068;8.154;2022-12-18T02:05:29;8.30;;;5.50;;
3637;SDS011;1835;50.068;8.154;2022-12-18T02:08:09;12.73;;;6.00;;
3637;SDS011;1835;50.068;8.154;2022-12-18T02:10:46;12.23;;;5.83;;
3637;SDS011;1835;50.068;8.154;2022-12-18T02:13:20;11.00;;;6.50;;
3637;SDS011;1835;50.068;8.154;2022-12-18T02:15:57;13.33;;;5.80;;
3637;SDS011;1835;50.068;8.154;2022-12-18T02:18:32;9.70;;;5.90;;
3637;SDS011;1835;50.068;8.154;2022-12-18T02:21:07;13.67;;;7.80;;
3637;SDS011;1835;50.068;8.154;2022-12-18T02:23:47;10.10;;;5.47;;
3637;SDS011;1835;50.068;8.154;2022-12-18T02:26:27;13.20;;;6.83;;
3637;SDS011;1835;50.068;8.154;2022-12-18T02:28:59;15.07;;;6.30;;
3637;SDS011;1835;50.068;8.154;2022-12-18T02:31:35;8.33;;;5.40;;
3637;SDS011;1835;50.068;8.154;2022-12-18T02:34:09;13.97;;;6.83;;
3637;SDS011;1835;50.068;8.154;2022-12-18T02:36:40;10.57;;;6.80;;
3637;SDS011;1835;50.068;8.154;2022-12-18T02:39:11;10.70;;;5.43;;
3637;SDS011;1835;50.068;8.154;2022-12-18T02:41:42;11.23;;;6.00;;
3637;SDS011;1835;50.068;8.154;2022-12-18T02:44:11;13.90;;;7.97;;
3637;SDS011;1835;50.068;8.154;2022-12-18T02:46:41;15.07;;;7.07;;
3637;SDS011;1835;50.068;8.154;2022-12-18T02:49:17;19.93;;;6.03;;
3637;SDS011;1835;50.068;8.154;2022-12-18T02:52:00;18.80;;;6.87;;
3637;SDS011;1835;50.068;8.154;2022-12-18T02:54:41;13.77;;;7.27;;
3637;SDS011;1835;50.068;8.154;2022-12-18T02:57:27;13.37;;;6.23;;
3637;SDS011;1835;50.068;8.154;2022-12-18T03:00:03;19.23;;;6.67;;
3637;SDS011;1835;50.068;8.154;2022-12-18T03:02:37;14.60;;;7.00;;
3637;SDS011;1835;50.068;8.154;2022-12-18T03:05:13;9.90;;;5.33;;
3637;SDS011;1835;50.068;8.154;2022-12-18T03:07:47;10.20;;;5.63;;
3637;SDS011;1835;50.068;8.154;2022-12-18T03:10:21;19.57;;;6.80;;
3637;SDS011;1835;50.068;8.154;2022-12-18T03:12:56;21.50;;;7.67;;
3637;SDS011;1835;50.068;8.154;2022-12-18T03:15:31;11.97;;;6.93;;
3637;SDS011;1835;50.068;8.154;2022-12-18T03:18:06;10.10;;;5.13;;
3637;SDS011;1835;50.068;8.154;2022-12-18T03:20:39;15.73;;;7.70;;
3637;SDS011;1835;50.068;8.154;2022-12-18T03:23:12;15.43;;;7.50;;
3637;SDS011;1835;50.068;8.154;2022-12-18T03:25:44;11.20;;;5.87;;
3637;SDS011;1835;50.068;8.154;2022-12-18T03:28:15;21.10;;;8.40;;
3637;SDS011;1835;50.068;8.154;2022-12-18T03:30:49;15.83;;;6.07;;
3637;SDS011;1835;50.068;8.154;2022-12-18T03:33:21;11.30;;;5.80;;
3637;SDS011;1835;50.068;8.154;2022-12-18T03:35:54;19.40;;;6.83;;
3637;SDS011;1835;50.068;8.154;2022-12-18T03:38:22;11.83;;;6.63;;
3637;SDS011;1835;50.068;8.154;2022-12-18T03:40:53;9.13;;;5.93;;
3637;SDS011;1835;50.068;8.154;2022-12-18T03:43:32;7.93;;;5.80;;
3637;SDS011;1835;50.068;8.154;2022-12-18T03:46:11;9.87;;;5.33;;
3637;SDS011;1835;50.068;8.154;2022-12-18T03:48:52;9.70;;;5.90;;
3637;SDS011;1835;50.068;8.154;2022-12-18T03:51:28;7.13;;;5.70;;
3637;SDS011;1835;50.068;8.154;2022-12-18T03:54:05;9.87;;;5.40;;
3637;SDS011;1835;50.068;8.154;2022-12-18T03:56:36;17.20;;;7.80;;
3637;SDS011;1835;50.068;8.154;2022-12-18T03:59:09;12.50;;;6.60;;
3637;SDS011;1835;50.068;8.154;2022-12-18T04:01:39;12.53;;;7.93;;
3637;SDS011;1835;50.068;8.154;2022-12-18T04:04:13;12.33;;;5.80;;
3637;SDS011;1835;50.068;8.154;2022-12-18T04:06:42;11.20;;;7.27;;
3637;SDS011;1835;50.068;8.154;2022-12-18T04:09:13;8.47;;;5.20;;
3637;SDS011;1835;50.068;8.154;2022-12-18T04:11:41;11.00;;;7.17;;
3637;SDS011;1835;50.068;8.154;2022-12-18T04:14:12;16.70;;;7.27;;
3637;SDS011;1835;50.068;8.154;2022-12-18T04:16:43;13.87;;;7.30;;
3637;SDS011;1835;50.068;8.154;2022-12-18T04:19:11;7.27;;;5.70;;
3637;SDS011;1835;50.068;8.154;2022-12-18T04:21:39;12.07;;;6.27;;
3637;SDS011;1835;50.068;8.154;2022-12-18T04:24:07;13.70;;;6.77;;
3637;SDS011;1835;50.068;8.154;2022-12-18T04:26:35;15.67;;;7.07;;
3637;SDS011;1835;50.068;8.154;2022-12-18T04:29:04;14.47;;;6.53;;
3637;SDS011;1835;50.068;8.154;2022-12-18T04:31:33;14.20;;;5.90;;
3637;SDS011;1835;50.068;8.154;2022-12-18T04:34:01;13.43;;;5.57;;
3637;SDS011;1835;50.068;8.154;2022-12-18T04:36:30;10.67;;;6.73;;
3637;SDS011;1835;50.068;8.154;2022-12-18T04:38:58;9.67;;;6.20;;
3637;SDS011;1835;50.068;8.154;2022-12-18T04:41:26;14.20;;;5.33;;
3637;SDS011;1835;50.068;8.154;2022-12-18T04:43:54;17.90;;;5.57;;
3637;SDS011;1835;50.068;8.154;2022-12-18T04:46:22;22.57;;;6.10;;
3637;SDS011;1835;50.068;8.154;2022-12-18T04:48:51;13.90;;;6.63;;
3637;SDS011;1835;50.068;8.154;2022-12-18T04:51:20;10.10;;;5.43;;
3637;SDS011;1835;50.068;8.154;2022-12-18T04:53:52;19.30;;;6.67;;
3637;SDS011;1835;50.068;8.154;2022-12-18T04:56:20;12.60;;;6.27;;
3637;SDS011;1835;50.068;8.154;2022-12-18T04:58:48;14.37;;;5.77;;
3637;SDS011;1835;50.068;8.154;2022-12-18T05:01:17;11.23;;;6.40;;
3637;SDS011;1835;50.068;8.154;2022-12-18T05:03:46;9.47;;;5.47;;
3637;SDS011;1835;50.068;8.154;2022-12-18T05:06:15;17.10;;;6.90;;
3637;SDS011;1835;50.068;8.154;2022-12-18T05:08:43;15.90;;;6.17;;
3637;SDS011;1835;50.068;8.154;2022-12-18T05:11:12;8.57;;;6.60;;
3637;SDS011;1835;50.068;8.154;2022-12-18T05:13:42;11.77;;;5.13;;
3637;SDS011;1835;50.068;8.154;2022-12-18T05:16:12;12.83;;;7.83;;
3637;SDS011;1835;50.068;8.154;2022-12-18T05:18:41;17.47;;;6.43;;
3637;SDS011;1835;50.068;8.154;2022-12-18T05:21:09;14.03;;;6.67;;
3637;SDS011;1835;50.068;8.154;2022-12-18T05:23:39;19.63;;;7.20;;
3637;SDS011;1835;50.068;8.154;2022-12-18T05:26:08;10.30;;;5.53;;
3637;SDS011;1835;50.068;8.154;2022-12-18T05:28:45;20.70;;;7.27;;
3637;SDS011;1835;50.068;8.154;2022-12-18T05:31:13;14.00;;;5.03;;
3637;SDS011;1835;50.068;8.154;2022-12-18T05:33:42;24.30;;;8.13;;
3637;SDS011;1835;50.068;8.154;2022-12-18T05:36:10;22.47;;;7.73;;
3637;SDS011;1835;50.068;8.154;2022-12-18T05:38:39;13.80;;;7.50;;
3637;SDS011;1835;50.068;8.154;2022-12-18T05:41:08;18.30;;;7.77;;
3637;SDS011;1835;50.068;8.154;2022-12-18T05:43:37;15.83;;;7.30;;
3637;SDS011;1835;50.068;8.154;2022-12-18T05:46:07;16.23;;;5.77;;
3637;SDS011;1835;50.068;8.154;2022-12-18T05:48:39;22.60;;;5.77;;
3637;SDS011;1835;50.068;8.154;2022-12-18T05:51:08;12.23;;;6.70;;
3637;SDS011;1835;50.068;8.154;2022-12-18T05:53:39;13.67;;;6.83;;
3637;SDS011;1835;50.068;8.154;2022-12-18T05:56:10;18.33;;;7.30;;
3637;SDS011;1835;50.068;8.154;2022-12-18T05:58:41;9.30;;;6.73;;
3637;SDS011;1835;50.068;8.154;2022-12-18T06:01:11;13.90;;;7.30;;
3637;SDS011;1835;50.068;8.154;2022-12-18T06:03:42;10.80;;;5.70;;
3637;SDS011;1835;50.068;8.154;2022-12-18T06:06:15;16.03;;;7.33;;
3637;SDS011;1835;50.068;8.154;2022-12-18T06:08:46;16.90;;;5.77;;
3637;SDS011;1835;50.068;8.154;2022-12-18T06:11:16;11.63;;;5.73;;
3637;SDS011;1835;50.068;8.154;2022-12-18T06:13:49;20.50;;;7.67;;
3637;SDS011;1835;50.068;8.154;2022-12-18T06:16:24;18.10;;;6.00;;
3637;SDS011;1835;50.068;8.154;2022-12-18T06:18:52;13.93;;;6.10;;
3637;SDS011;1835;50.068;8.154;2022-12-18T06:21:20;13.37;;;6.37;;
3637;SDS011;1835;50.068;8.154;2022-12-18T06:23:49;13.70;;;6.80;;
3637;SDS011;1835;50.068;8.154;2022-12-18T06:26:17;15.23;;;8.40;;
3637;SDS011;1835;50.068;8.154;2022-12-18T06:28:53;13.33;;;6.30;;
3637;SDS011;1835;50.068;8.154;2022-12-18T06:31:21;13.70;;;6.07;;
3637;SDS011;1835;50.068;8.154;2022-12-18T06:33:49;11.83;;;5.50;;
3637;SDS011;1835;50.068;8.154;2022-12-18T06:36:17;17.43;;;6.30;;
3637;SDS011;1835;50.068;8.154;2022-12-18T06:38:45;19.83;;;6.67;;
3637;SDS011;1835;50.068;8.154;2022-12-18T06:41:16;17.30;;;7.33;;
3637;SDS011;1835;50.068;8.154;2022-12-18T06:43:46;14.67;;;6.10;;
3637;SDS011;1835;50.068;8.154;2022-12-18T06:46:14;19.43;;;6.77;;
3637;SDS011;1835;50.068;8.154;2022-12-18T06:48:45;17.30;;;6.23;;
3637;SDS011;1835;50.068;8.154;2022-12-18T06:51:19;16.30;;;6.73;;
3637;SDS011;1835;50.068;8.154;2022-12-18T06:53:50;20.50;;;6.17;;
3637;SDS011;1835;50.068;8.154;2022-12-18T06:56:20;28.03;;;7.03;;
3637;SDS011;1835;50.068;8.154;2022-12-18T06:58:51;21.20;;;7.30;;
3637;SDS011;1835;50.068;8.154;2022-12-18T07:01:19;16.30;;;7.53;;
3637;SDS011;1835;50.068;8.154;2022-12-18T07:03:50;7.23;;;3.77;;
3637;SDS011;1835;50.068;8.154;2022-12-18T07:06:21;14.47;;;5.63;;
3637;SDS011;1835;50.068;8.154;2022-12-18T07:08:50;7.77;;;5.63;;
3637;SDS011;1835;50.068;8.154;2022-12-18T07:11:21;13.33;;;6.00;;
3637;SDS011;1835;50.068;8.154;2022-12-18T07:13:50;17.30;;;8.87;;
3637;SDS011;1835;50.068;8.154;2022-12-18T07:16:21;19.33;;;8.03;;
3637;SDS011;1835;50.068;8.154;2022-12-18T07:18:51;9.60;;;7.33;;
3637;SDS011;1835;50.068;8.154;2022-12-18T07:21:19;17.73;;;7.73;;
3637;SDS011;1835;50.068;8.154;2022-12-18T07:23:51;9.17;;;6.20;;
3637;SDS011;1835;50.068;8.154;2022-12-18T07:26:20;10.83;;;5.50;;
3637;SDS011;1835;50.068;8.154;2022-12-18T07:28:49;16.27;;;7.17;;
3637;SDS011;1835;50.068;8.154;2022-12-18T07:31:19;24.70;;;9.63;;
3637;SDS011;1835;50.068;8.154;2022-12-18T07:33:48;19.20;;;6.00;;
3637;SDS011;1835;50.068;8.154;2022-12-18T07:36:17;13.50;;;6.70;;
3637;SDS011;1835;50.068;8.154;2022-12-18T07:38:46;28.33;;;6.60;;
3637;SDS011;1835;50.068;8.154;2022-12-18T07:41:15;16.43;;;6.90;;
3637;SDS011;1835;50.068;8.154;2022-12-18T07:43:46;17.77;;;7.20;;
3637;SDS011;1835;50.068;8.154;2022-12-18T07:46:14;21.33;;;6.67;;
3637;SDS011;1835;50.068;8.154;2022-12-18T07:48:43;18.73;;;7.20;;
3637;SDS011;1835;50.068;8.154;2022-12-18T07:51:15;13.93;;;6.90;;
3637;SDS011;1835;50.068;8.154;2022-12-18T07:53:44;12.80;;;6.37;;
3637;SDS011;1835;50.068;8.154;2022-12-18T07:56:17;30.23;;;5.80;;
3637;SDS011;1835;50.068;8.154;2022-12-18T07:58:57;14.73;;;5.90;;
3637;SDS011;1835;50.068;8.154;2022-12-18T08:01:26;10.67;;;6.67;;
3637;SDS011;1835;50.068;8.154;2022-12-18T08:03:54;14.47;;;8.30;;
3637;SDS011;1835;50.068;8.154;2022-12-18T08:06:22;12.40;;;5.60;;
3637;SDS011;1835;50.068;8.154;2022-12-18T08:08:51;14.23;;;6.30;;
3637;SDS011;1835;50.068;8.154;2022-12-18T08:11:20;12.40;;;6.97;;
3637;SDS011;1835;50.068;8.154;2022-12-18T08:13:48;26.43;;;6.40;;
3637;SDS011;1835;50.068;8.154;2022-12-18T08:16:18;11.23;;;6.27;;
3637;SDS011;1835;50.068;8.154;2022-12-18T08:18:47;19.63;;;5.87;;
3637;SDS011;1835;50.068;8.154;2022-12-18T08:21:18;16.67;;;7.60;;
3637;SDS011;1835;50.068;8.154;2022-12-18T08:23:49;12.90;;;7.23;;
3637;SDS011;1835;50.068;8.154;2022-12-18T08:26:20;15.57;;;6.80;;
3637;SDS011;1835;50.068;8.154;2022-12-18T08:28:50;15.10;;;5.67;;
3637;SDS011;1835;50.068;8.154;2022-12-18T08:31:20;23.97;;;9.40;;
3637;SDS011;1835;50.068;8.154;2022-12-18T08:33:51;18.57;;;10.07;;
3637;SDS011;1835;50.068;8.154;2022-12-18T08:36:21;27.50;;;9.60;;
3637;SDS011;1835;50.068;8.154;2022-12-18T08:38:50;20.67;;;10.73;;
3637;SDS011;1835;50.068;8.154;2022-12-18T08:41:18;36.10;;;16.70;;
3637;SDS011;1835;50.068;8.154;2022-12-18T08:43:47;36.13;;;15.83;;
3637;SDS011;1835;50.068;8.154;2022-12-18T08:46:35;24.00;;;11.70;;
3637;SDS011;1835;50.068;8.154;2022-12-18T08:49:04;36.73;;;13.90;;
3637;SDS011;1835;50.068;8.154;2022-12-18T08:51:34;48.23;;;17.80;;
3637;SDS011;1835;50.068;8.154;2022-12-18T08:54:02;28.93;;;12.67;;
3637;SDS011;1835;50.068;8.154;2022-12-18T08:56:32;31.23;;;10.70;;
3637;SDS011;1835;50.068;8.154;2022-12-18T08:59:00;32.27;;;12.00;;
3637;SDS011;1835;50.068;8.154;2022-12-18T09:01:29;19.57;;;9.50;;
3637;SDS011;1835;50.068;8.154;2022-12-18T09:03:58;22.23;;;10.77;;
3637;SDS011;1835;50.068;8.154;2022-12-18T09:06:26;28.57;;;11.00;;
3637;SDS011;1835;50.068;8.154;2022-12-18T09:08:54;33.10;;;11.77;;
3637;SDS011;1835;50.068;8.154;2022-12-18T09:11:25;30.80;;;11.20;;
3637;SDS011;1835;50.068;8.154;2022-12-18T09:13:55;29.00;;;10.07;;
3637;SDS011;1835;50.068;8.154;2022-12-18T09:16:24;26.73;;;10.40;;
3637;SDS011;1835;50.068;8.154;2022-12-18T09:18:59;40.27;;;11.97;;
3637;SDS011;1835;50.068;8.154;2022-12-18T09:21:29;21.13;;;11.17;;
3637;SDS011;1835;50.068;8.154;2022-12-18T09:24:02;46.43;;;28.10;;
3637;SDS011;1835;50.068;8.154;2022-12-18T09:26:34;20.93;;;11.33;;
3637;SDS011;1835;50.068;8.154;2022-12-18T09:29:03;26.50;;;12.57;;
3637;SDS011;1835;50.068;8.154;2022-12-18T09:31:34;30.93;;;13.13;;
3637;SDS011;1835;50.068;8.154;2022-12-18T09:34:07;24.57;;;10.30;;
3637;SDS011;1835;50.068;8.154;2022-12-18T09:36:36;23.93;;;10.30;;
3637;SDS011;1835;50.068;8.154;2022-12-18T09:39:09;32.37;;;11.13;;
3637;SDS011;1835;50.068;8.154;2022-12-18T09:41:41;35.20;;;12.20;;
3637;SDS011;1835;50.068;8.154;2022-12-18T09:44:15;25.73;;;12.23;;
3637;SDS011;1835;50.068;8.154;2022-12-18T09:46:51;35.93;;;12.67;;
3637;SDS011;1835;50.068;8.154;2022-12-18T09:49:30;24.60;;;11.13;;
3637;SDS011;1835;50.068;8.154;2022-12-18T09:52:04;28.90;;;11.80;;
3637;SDS011;1835;50.068;8.154;2022-12-18T09:54:44;33.03;;;12.53;;
3637;SDS011;1835;50.068;8.154;2022-12-18T09:57:17;40.27;;;12.20;;
3637;SDS011;1835;50.068;8.154;2022-12-18T09:59:50;25.13;;;11.20;;
3637;SDS011;1835;50.068;8.154;2022-12-18T10:02:23;31.70;;;13.60;;
3637;SDS011;1835;50.068;8.154;2022-12-18T10:04:59;33.97;;;12.90;;
3637;SDS011;1835;50.068;8.154;2022-12-18T10:07:40;30.47;;;11.40;;
3637;SDS011;1835;50.068;8.154;2022-12-18T10:10:29;28.03;;;12.80;;
3637;SDS011;1835;50.068;8.154;2022-12-18T10:13:09;38.27;;;14.70;;
3637;SDS011;1835;50.068;8.154;2022-12-18T10:15:52;32.37;;;12.70;;
3637;SDS011;1835;50.068;8.154;2022-12-18T10:18:35;37.23;;;13.30;;
3637;SDS011;1835;50.068;8.154;2022-12-18T10:21:23;33.30;;;12.43;;
3637;SDS011;1835;50.068;8.154;2022-12-18T10:23:59;30.83;;;14.13;;
3637;SDS011;1835;50.068;8.154;2022-12-18T10:26:41;27.67;;;12.87;;
3637;SDS011;1835;50.068;8.154;2022-12-18T10:29:11;25.30;;;10.87;;
3637;SDS011;1835;50.068;8.154;2022-12-18T10:31:41;41.93;;;14.30;;
3637;SDS011;1835;50.068;8.154;2022-12-18T10:34:09;26.63;;;13.40;;
3637;SDS011;1835;50.068;8.154;2022-12-18T10:36:43;26.23;;;13.50;;
3637;SDS011;1835;50.068;8.154;2022-12-18T10:39:15;30.13;;;11.80;;
3637;SDS011;1835;50.068;8.154;2022-12-18T10:41:45;35.50;;;12.80;;
3637;SDS011;1835;50.068;8.154;2022-12-18T10:44:16;26.13;;;11.13;;
3637;SDS011;1835;50.068;8.154;2022-12-18T10:46:46;31.97;;;11.30;;
3637;SDS011;1835;50.068;8.154;2022-12-18T10:49:27;27.80;;;12.17;;
3637;SDS011;1835;50.068;8.154;2022-12-18T10:52:05;28.50;;;12.43;;
3637;SDS011;1835;50.068;8.154;2022-12-18T10:54:45;32.00;;;12.70;;
3637;SDS011;1835;50.068;8.154;2022-12-18T10:57:19;28.33;;;12.77;;
3637;SDS011;1835;50.068;8.154;2022-12-18T11:00:19;25.97;;;12.33;;
3637;SDS011;1835;50.068;8.154;2022-12-18T11:02:53;32.00;;;12.00;;
3637;SDS011;1835;50.068;8.154;2022-12-18T11:05:25;32.90;;;13.37;;
3637;SDS011;1835;50.068;8.154;2022-12-18T11:07:58;26.60;;;11.97;;
3637;SDS011;1835;50.068;8.154;2022-12-18T11:10:29;34.73;;;14.20;;
3637;SDS011;1835;50.068;8.154;2022-12-18T11:13:12;30.57;;;11.60;;
3637;SDS011;1835;50.068;8.154;2022-12-18T11:15:45;29.93;;;12.73;;
3637;SDS011;1835;50.068;8.154;2022-12-18T11:18:18;27.40;;;11.70;;
3637;SDS011;1835;50.068;8.154;2022-12-18T11:20:52;29.53;;;12.83;;
3637;SDS011;1835;50.068;8.154;2022-12-18T11:23:26;23.97;;;10.87;;
3637;SDS011;1835;50.068;8.154;2022-12-18T11:25:57;30.23;;;14.00;;
3637;SDS011;1835;50.068;8.154;2022-12-18T11:28:29;36.27;;;13.63;;
3637;SDS011;1835;50.068;8.154;2022-12-18T11:31:15;34.43;;;13.40;;
3637;SDS011;1835;50.068;8.154;2022-12-18T11:33:59;30.33;;;11.53;;
3637;SDS011;1835;50.068;8.154;2022-12-18T11:36:53;23.93;;;11.30;;
3637;SDS011;1835;50.068;8.154;2022-12-18T11:39:26;28.70;;;12.80;;
3637;SDS011;1835;50.068;8.154;2022-12-18T11:42:04;38.80;;;13.40;;
3637;SDS011;1835;50.068;8.154;2022-12-18T11:44:42;42.93;;;15.07;;
3637;SDS011;1835;50.068;8.154;2022-12-18T11:47:22;34.07;;;12.97;;
3637;SDS011;1835;50.068;8.154;2022-12-18T11:49:59;32.73;;;13.00;;
3637;SDS011;1835;50.068;8.154;2022-12-18T11:52:31;24.17;;;11.90;;
3637;SDS011;1835;50.068;8.154;2022-12-18T11:55:08;29.93;;;12.37;;
3637;SDS011;1835;50.068;8.154;2022-12-18T11:57:42;30.93;;;14.17;;
3637;SDS011;1835;50.068;8.154;2022-12-18T12:00:19;39.80;;;13.80;;
3637;SDS011;1835;50.068;8.154;2022-12-18T12:02:57;31.00;;;12.23;;
3637;SDS011;1835;50.068;8.154;2022-12-18T12:05:52;29.37;;;11.90;;
3637;SDS011;1835;50.068;8.154;2022-12-18T12:08:34;37.13;;;14.80;;
3637;SDS011;1835;50.068;8.154;2022-12-18T12:11:17;27.30;;;12.97;;
3637;SDS011;1835;50.068;8.154;2022-12-18T12:13:56;37.90;;;13.50;;
3637;SDS011;1835;50.068;8.154;2022-12-18T12:16:41;25.77;;;12.27;;
3637;SDS011;1835;50.068;8.154;2022-12-18T12:19:28;27.53;;;12.17;;
3637;SDS011;1835;50.068;8.154;2022-12-18T12:22:10;38.70;;;15.20;;
3637;SDS011;1835;50.068;8.154;2022-12-18T12:24:54;39.43;;;14.30;;
3637;SDS011;1835;50.068;8.154;2022-12-18T12:27:44;63.27;;;11.90;;
3637;SDS011;1835;50.068;8.154;2022-12-18T12:30:24;33.37;;;14.03;;
3637;SDS011;1835;50.068;8.154;2022-12-18T12:33:08;36.87;;;14.90;;
3637;SDS011;1835;50.068;8.154;2022-12-18T12:35:52;36.60;;;15.00;;
3637;SDS011;1835;50.068;8.154;2022-12-18T12:38:28;35.27;;;16.20;;
3637;SDS011;1835;50.068;8.154;2022-12-18T12:41:04;44.97;;;15.17;;
3637;SDS011;1835;50.068;8.154;2022-12-18T12:43:57;30.00;;;13.60;;
3637;SDS011;1835;50.068;8.154;2022-12-18T12:46:31;39.30;;;14.20;;
3637;SDS011;1835;50.068;8.154;2022-12-18T12:49:07;39.97;;;14.23;;
3637;SDS011;1835;50.068;8.154;2022-12-18T12:51:43;32.50;;;13.90;;
3637;SDS011;1835;50.068;8.154;2022-12-18T12:54:15;38.50;;;15.47;;
3637;SDS011;1835;50.068;8.154;2022-12-18T12:56:48;44.53;;;16.77;;
3637;SDS011;1835;50.068;8.154;2022-12-18T12:59:27;39.37;;;15.40;;
3637;SDS011;1835;50.068;8.154;2022-12-18T13:02:10;41.60;;;18.50;;
3637;SDS011;1835;50.068;8.154;2022-12-18T13:04:48;45.77;;;13.97;;
3637;SDS011;1835;50.068;8.154;2022-12-18T13:07:24;43.00;;;14.73;;
3637;SDS011;1835;50.068;8.154;2022-12-18T13:10:14;35.07;;;13.83;;
3637;SDS011;1835;50.068;8.154;2022-12-18T13:13:01;30.23;;;11.43;;
3637;SDS011;1835;50.068;8.154;2022-12-18T13:15:37;36.20;;;14.00;;
3637;SDS011;1835;50.068;8.154;2022-12-18T13:18:14;38.53;;;13.50;;
3637;SDS011;1835;50.068;8.154;2022-12-18T13:20:48;31.20;;;14.53;;
3637;SDS011;1835;50.068;8.154;2022-12-18T13:23:31;34.67;;;14.30;;
3637;SDS011;1835;50.068;8.154;2022-12-18T13:29:00;39.63;;;14.53;;
3637;SDS011;1835;50.068;8.154;2022-12-18T13:34:27;36.80;;;17.13;;
3637;SDS011;1835;50.068;8.154;2022-12-18T13:43:32;42.63;;;14.50;;
3637;SDS011;1835;50.068;8.154;2022-12-18T13:46:20;50.27;;;16.90;;
3637;SDS011;1835;50.068;8.154;2022-12-18T13:48:53;35.63;;;13.07;;
3637;SDS011;1835;50.068;8.154;2022-12-18T13:51:26;43.87;;;14.53;;
3637;SDS011;1835;50.068;8.154;2022-12-18T13:53:59;33.33;;;12.90;;
3637;SDS011;1835;50.068;8.154;2022-12-18T13:56:31;52.43;;;17.50;;
3637;SDS011;1835;50.068;8.154;2022-12-18T13:59:10;59.30;;;16.40;;
3637;SDS011;1835;50.068;8.154;2022-12-18T14:01:50;37.83;;;15.53;;
3637;SDS011;1835;50.068;8.154;2022-12-18T14:04:24;42.33;;;13.97;;
3637;SDS011;1835;50.068;8.154;2022-12-18T14:06:56;29.83;;;13.33;;
3637;SDS011;1835;50.068;8.154;2022-12-18T14:09:28;36.30;;;16.20;;
3637;SDS011;1835;50.068;8.154;2022-12-18T14:11:59;38.27;;;15.27;;
3637;SDS011;1835;50.068;8.154;2022-12-18T14:14:46;35.97;;;16.20;;
3637;SDS011;1835;50.068;8.154;2022-12-18T14:17:20;41.67;;;13.83;;
3637;SDS011;1835;50.068;8.154;2022-12-18T14:19:50;38.67;;;14.80;;
3637;SDS011;1835;50.068;8.154;2022-12-18T14:22:19;49.57;;;16.80;;
3637;SDS011;1835;50.068;8.154;2022-12-18T14:25:13;42.70;;;14.20;;
3637;SDS011;1835;50.068;8.154;2022-12-18T14:27:46;35.43;;;14.20;;
3637;SDS011;1835;50.068;8.154;2022-12-18T14:30:23;47.70;;;16.20;;
3637;SDS011;1835;50.068;8.154;2022-12-18T14:33:00;34.73;;;13.73;;
3637;SDS011;1835;50.068;8.154;2022-12-18T14:35:34;42.67;;;13.77;;
3637;SDS011;1835;50.068;8.154;2022-12-18T14:38:15;41.87;;;17.60;;
3637;SDS011;1835;50.068;8.154;2022-12-18T14:40:53;37.13;;;14.00;;
3637;SDS011;1835;50.068;8.154;2022-12-18T14:43:27;37.23;;;14.57;;
3637;SDS011;1835;50.068;8.154;2022-12-18T14:45:56;43.53;;;14.27;;
3637;SDS011;1835;50.068;8.154;2022-12-18T14:48:32;42.87;;;15.20;;
3637;SDS011;1835;50.068;8.154;2022-12-18T14:51:06;40.77;;;14.07;;
3637;SDS011;1835;50.068;8.154;2022-12-18T14:53:43;58.13;;;17.50;;
3637;SDS011;1835;50.068;8.154;2022-12-18T14:56:20;45.83;;;16.97;;
3637;SDS011;1835;50.068;8.154;2022-12-18T14:58:53;43.13;;;15.50;;
3637;SDS011;1835;50.068;8.154;2022-12-18T15:01:27;53.67;;;15.47;;
3637;SDS011;1835;50.068;8.154;2022-12-18T15:03:57;41.20;;;14.90;;
3637;SDS011;1835;50.068;8.154;2022-12-18T15:06:31;34.70;;;13.80;;
3637;SDS011;1835;50.068;8.154;2022-12-18T15:09:01;56.73;;;17.33;;
3637;SDS011;1835;50.068;8.154;2022-12-18T15:11:33;35.70;;;14.27;;
3637;SDS011;1835;50.068;8.154;2022-12-18T15:14:22;42.90;;;13.90;;
3637;SDS011;1835;50.068;8.154;2022-12-18T15:17:03;56.77;;;15.97;;
3637;SDS011;1835;50.068;8.154;2022-12-18T15:19:37;33.17;;;13.23;;
3637;SDS011;1835;50.068;8.154;2022-12-18T15:25:02;44.00;;;14.90;;
3637;SDS011;1835;50.068;8.154;2022-12-18T15:27:50;50.57;;;16.10;;
3637;SDS011;1835;50.068;8.154;2022-12-18T15:30:19;47.33;;;16.10;;
3637;SDS011;1835;50.068;8.154;2022-12-18T15:32:50;42.90;;;16.20;;
3637;SDS011;1835;50.068;8.154;2022-12-18T15:35:20;39.27;;;15.20;;
3637;SDS011;1835;50.068;8.154;2022-12-18T15:37:52;39.40;;;14.50;;
3637;SDS011;1835;50.068;8.154;2022-12-18T15:40:20;36.57;;;13.40;;
3637;SDS011;1835;50.068;8.154;2022-12-18T15:42:51;38.93;;;15.13;;
3637;SDS011;1835;50.068;8.154;2022-12-18T15:45:39;53.07;;;15.73;;
3637;SDS011;1835;50.068;8.154;2022-12-18T15:48:19;41.30;;;15.07;;
3637;SDS011;1835;50.068;8.154;2022-12-18T15:50:49;54.53;;;14.90;;